sensor_id;sensor_type;location;lat;lon;timestamp;P1;durP1;ratioP1;P2;durP2;ratioP2
67554;SDS011;54385;53.516;49.456;2023-05-07T00:02:54;7.38;;;3.47;;
67554;SDS011;54385;53.516;49.456;2023-05-07T00:05:21;8.60;;;4.82;;
67554;SDS011;54385;53.516;49.456;2023-05-07T00:07:48;8.45;;;3.50;;
67554;SDS011;54385;53.516;49.456;2023-05-07T00:10:14;5.85;;;3.50;;
67554;SDS011;54385;53.516;49.456;2023-05-07T00:12:41;6.65;;;3.60;;
67554;SDS011;54385;53.516;49.456;2023-05-07T00:15:08;5.50;;;3.20;;
67554;SDS011;54385;53.516;49.456;2023-05-07T00:17:36;5.38;;;3.03;;
67554;SDS011;54385;53.516;49.456;2023-05-07T00:20:03;9.80;;;3.03;;
67554;SDS011;54385;53.516;49.456;2023-05-07T00:22:31;9.63;;;3.05;;
67554;SDS011;54385;53.516;49.456;2023-05-07T00:24:58;3.70;;;2.20;;
67554;SDS011;54385;53.516;49.456;2023-05-07T00:27:25;3.95;;;2.40;;
67554;SDS011;54385;53.516;49.456;2023-05-07T00:29:52;4.10;;;2.05;;
67554;SDS011;54385;53.516;49.456;2023-05-07T00:32:18;4.20;;;1.90;;
67554;SDS011;54385;53.516;49.456;2023-05-07T00:34:45;3.90;;;1.98;;
67554;SDS011;54385;53.516;49.456;2023-05-07T00:37:12;2.58;;;2.28;;
67554;SDS011;54385;53.516;49.456;2023-05-07T00:39:39;2.78;;;1.90;;
67554;SDS011;54385;53.516;49.456;2023-05-07T00:42:06;3.15;;;2.30;;
67554;SDS011;54385;53.516;49.456;2023-05-07T00:44:32;2.38;;;1.80;;
67554;SDS011;54385;53.516;49.456;2023-05-07T00:46:59;4.43;;;2.05;;
67554;SDS011;54385;53.516;49.456;2023-05-07T00:49:34;1.83;;;1.50;;
67554;SDS011;54385;53.516;49.456;2023-05-07T00:52:14;5.75;;;1.85;;
67554;SDS011;54385;53.516;49.456;2023-05-07T00:54:43;6.65;;;2.20;;
67554;SDS011;54385;53.516;49.456;2023-05-07T00:57:10;4.38;;;1.85;;
67554;SDS011;54385;53.516;49.456;2023-05-07T00:59:37;4.45;;;2.08;;
67554;SDS011;54385;53.516;49.456;2023-05-07T01:02:06;1.75;;;1.40;;
67554;SDS011;54385;53.516;49.456;2023-05-07T01:04:33;3.05;;;1.80;;
67554;SDS011;54385;53.516;49.456;2023-05-07T01:09:27;2.42;;;1.80;;
67554;SDS011;54385;53.516;49.456;2023-05-07T01:11:54;2.78;;;1.58;;
67554;SDS011;54385;53.516;49.456;2023-05-07T01:14:23;3.05;;;2.15;;
67554;SDS011;54385;53.516;49.456;2023-05-07T01:16:51;2.25;;;1.88;;
67554;SDS011;54385;53.516;49.456;2023-05-07T01:19:19;5.65;;;2.03;;
67554;SDS011;54385;53.516;49.456;2023-05-07T01:21:46;3.03;;;1.90;;
67554;SDS011;54385;53.516;49.456;2023-05-07T01:24:14;5.15;;;2.10;;
67554;SDS011;54385;53.516;49.456;2023-05-07T01:26:42;3.08;;;2.30;;
67554;SDS011;54385;53.516;49.456;2023-05-07T01:29:10;2.83;;;1.75;;
67554;SDS011;54385;53.516;49.456;2023-05-07T01:31:37;3.45;;;2.33;;
67554;SDS011;54385;53.516;49.456;2023-05-07T01:34:07;3.20;;;2.20;;
67554;SDS011;54385;53.516;49.456;2023-05-07T01:36:37;9.20;;;2.80;;
67554;SDS011;54385;53.516;49.456;2023-05-07T01:39:05;4.70;;;1.98;;
67554;SDS011;54385;53.516;49.456;2023-05-07T01:41:33;2.63;;;2.05;;
67554;SDS011;54385;53.516;49.456;2023-05-07T01:44:01;4.13;;;2.10;;
67554;SDS011;54385;53.516;49.456;2023-05-07T01:46:30;2.95;;;2.20;;
67554;SDS011;54385;53.516;49.456;2023-05-07T01:48:58;2.95;;;1.92;;
67554;SDS011;54385;53.516;49.456;2023-05-07T01:51:25;3.15;;;1.92;;
67554;SDS011;54385;53.516;49.456;2023-05-07T01:53:53;2.50;;;2.00;;
67554;SDS011;54385;53.516;49.456;2023-05-07T01:56:19;3.47;;;1.80;;
67554;SDS011;54385;53.516;49.456;2023-05-07T01:58:47;3.53;;;1.80;;
67554;SDS011;54385;53.516;49.456;2023-05-07T02:01:14;3.17;;;1.85;;
67554;SDS011;54385;53.516;49.456;2023-05-07T02:03:40;2.97;;;2.08;;
67554;SDS011;54385;53.516;49.456;2023-05-07T02:06:07;3.13;;;1.98;;
67554;SDS011;54385;53.516;49.456;2023-05-07T02:11:01;4.40;;;2.00;;
67554;SDS011;54385;53.516;49.456;2023-05-07T02:13:29;2.60;;;1.85;;
67554;SDS011;54385;53.516;49.456;2023-05-07T02:15:58;6.43;;;2.00;;
67554;SDS011;54385;53.516;49.456;2023-05-07T02:18:25;6.10;;;2.20;;
67554;SDS011;54385;53.516;49.456;2023-05-07T02:20:52;3.40;;;2.20;;
67554;SDS011;54385;53.516;49.456;2023-05-07T02:23:19;4.13;;;2.38;;
67554;SDS011;54385;53.516;49.456;2023-05-07T02:25:46;3.17;;;2.15;;
67554;SDS011;54385;53.516;49.456;2023-05-07T02:28:13;3.75;;;2.25;;
67554;SDS011;54385;53.516;49.456;2023-05-07T02:30:40;5.05;;;2.63;;
67554;SDS011;54385;53.516;49.456;2023-05-07T02:33:06;4.28;;;2.40;;
67554;SDS011;54385;53.516;49.456;2023-05-07T02:35:34;12.10;;;3.70;;
67554;SDS011;54385;53.516;49.456;2023-05-07T02:38:01;6.07;;;2.97;;
67554;SDS011;54385;53.516;49.456;2023-05-07T02:40:28;6.40;;;3.45;;
67554;SDS011;54385;53.516;49.456;2023-05-07T02:45:21;11.63;;;3.88;;
67554;SDS011;54385;53.516;49.456;2023-05-07T02:47:48;5.72;;;3.00;;
67554;SDS011;54385;53.516;49.456;2023-05-07T02:50:14;5.97;;;2.88;;
67554;SDS011;54385;53.516;49.456;2023-05-07T02:52:41;8.38;;;3.08;;
67554;SDS011;54385;53.516;49.456;2023-05-07T02:55:08;4.18;;;2.17;;
67554;SDS011;54385;53.516;49.456;2023-05-07T02:57:35;4.40;;;2.53;;
67554;SDS011;54385;53.516;49.456;2023-05-07T03:00:15;5.18;;;2.70;;
67554;SDS011;54385;53.516;49.456;2023-05-07T03:02:44;4.10;;;2.35;;
67554;SDS011;54385;53.516;49.456;2023-05-07T03:05:11;2.75;;;2.00;;
67554;SDS011;54385;53.516;49.456;2023-05-07T03:07:38;4.90;;;2.33;;
67554;SDS011;54385;53.516;49.456;2023-05-07T03:12:32;4.25;;;2.20;;
67554;SDS011;54385;53.516;49.456;2023-05-07T03:14:59;3.78;;;2.17;;
67554;SDS011;54385;53.516;49.456;2023-05-07T03:17:25;9.55;;;3.03;;
67554;SDS011;54385;53.516;49.456;2023-05-07T03:19:52;5.53;;;2.97;;
67554;SDS011;54385;53.516;49.456;2023-05-07T03:22:19;5.68;;;2.30;;
67554;SDS011;54385;53.516;49.456;2023-05-07T03:24:46;2.00;;;1.77;;
67554;SDS011;54385;53.516;49.456;2023-05-07T03:27:13;6.05;;;1.95;;
67554;SDS011;54385;53.516;49.456;2023-05-07T03:29:39;4.90;;;2.10;;
67554;SDS011;54385;53.516;49.456;2023-05-07T03:32:06;2.10;;;1.40;;
67554;SDS011;54385;53.516;49.456;2023-05-07T03:34:33;4.57;;;1.90;;
67554;SDS011;54385;53.516;49.456;2023-05-07T03:39:26;3.72;;;1.60;;
67554;SDS011;54385;53.516;49.456;2023-05-07T03:41:53;6.03;;;1.73;;
67554;SDS011;54385;53.516;49.456;2023-05-07T03:44:20;2.50;;;1.50;;
67554;SDS011;54385;53.516;49.456;2023-05-07T03:49:13;3.30;;;1.48;;
67554;SDS011;54385;53.516;49.456;2023-05-07T03:51:39;2.00;;;1.23;;
67554;SDS011;54385;53.516;49.456;2023-05-07T03:54:06;2.55;;;1.35;;
67554;SDS011;54385;53.516;49.456;2023-05-07T03:56:34;2.92;;;1.60;;
67554;SDS011;54385;53.516;49.456;2023-05-07T03:59:01;1.70;;;1.23;;
67554;SDS011;54385;53.516;49.456;2023-05-07T04:01:28;2.25;;;1.63;;
67554;SDS011;54385;53.516;49.456;2023-05-07T04:03:55;2.30;;;1.30;;
67554;SDS011;54385;53.516;49.456;2023-05-07T04:06:21;6.75;;;1.33;;
67554;SDS011;54385;53.516;49.456;2023-05-07T04:08:48;2.33;;;1.42;;
67554;SDS011;54385;53.516;49.456;2023-05-07T04:11:15;2.10;;;1.10;;
67554;SDS011;54385;53.516;49.456;2023-05-07T04:13:41;4.20;;;1.50;;
67554;SDS011;54385;53.516;49.456;2023-05-07T04:16:08;5.32;;;1.40;;
67554;SDS011;54385;53.516;49.456;2023-05-07T04:18:35;2.97;;;1.40;;
67554;SDS011;54385;53.516;49.456;2023-05-07T04:21:02;1.48;;;1.10;;
67554;SDS011;54385;53.516;49.456;2023-05-07T04:23:29;10.10;;;2.55;;
67554;SDS011;54385;53.516;49.456;2023-05-07T04:25:55;4.10;;;1.33;;
67554;SDS011;54385;53.516;49.456;2023-05-07T04:28:23;2.45;;;1.08;;
67554;SDS011;54385;53.516;49.456;2023-05-07T04:30:50;2.42;;;0.93;;
67554;SDS011;54385;53.516;49.456;2023-05-07T04:33:17;4.85;;;1.40;;
67554;SDS011;54385;53.516;49.456;2023-05-07T04:35:44;4.28;;;1.05;;
67554;SDS011;54385;53.516;49.456;2023-05-07T04:38:10;4.10;;;1.48;;
67554;SDS011;54385;53.516;49.456;2023-05-07T04:40:37;1.63;;;1.02;;
67554;SDS011;54385;53.516;49.456;2023-05-07T04:43:04;1.48;;;1.10;;
67554;SDS011;54385;53.516;49.456;2023-05-07T04:45:31;2.58;;;1.00;;
67554;SDS011;54385;53.516;49.456;2023-05-07T04:47:58;4.47;;;1.00;;
67554;SDS011;54385;53.516;49.456;2023-05-07T04:50:25;5.03;;;0.90;;
67554;SDS011;54385;53.516;49.456;2023-05-07T04:52:53;1.33;;;0.80;;
67554;SDS011;54385;53.516;49.456;2023-05-07T04:55:20;1.20;;;1.00;;
67554;SDS011;54385;53.516;49.456;2023-05-07T04:57:47;2.50;;;1.08;;
67554;SDS011;54385;53.516;49.456;2023-05-07T05:00:13;3.10;;;1.33;;
67554;SDS011;54385;53.516;49.456;2023-05-07T05:02:40;2.75;;;0.80;;
67554;SDS011;54385;53.516;49.456;2023-05-07T05:05:07;1.48;;;0.90;;
67554;SDS011;54385;53.516;49.456;2023-05-07T05:07:35;1.83;;;1.15;;
67554;SDS011;54385;53.516;49.456;2023-05-07T05:10:02;2.35;;;1.10;;
67554;SDS011;54385;53.516;49.456;2023-05-07T05:12:29;1.40;;;0.98;;
67554;SDS011;54385;53.516;49.456;2023-05-07T05:14:56;1.35;;;0.90;;
67554;SDS011;54385;53.516;49.456;2023-05-07T05:17:23;3.92;;;0.93;;
67554;SDS011;54385;53.516;49.456;2023-05-07T05:19:52;1.40;;;1.23;;
67554;SDS011;54385;53.516;49.456;2023-05-07T05:22:19;1.50;;;1.10;;
67554;SDS011;54385;53.516;49.456;2023-05-07T05:24:47;1.60;;;1.13;;
67554;SDS011;54385;53.516;49.456;2023-05-07T05:27:13;1.65;;;1.00;;
67554;SDS011;54385;53.516;49.456;2023-05-07T05:29:40;1.77;;;0.90;;
67554;SDS011;54385;53.516;49.456;2023-05-07T05:32:07;2.17;;;1.08;;
67554;SDS011;54385;53.516;49.456;2023-05-07T05:34:34;3.30;;;1.42;;
67554;SDS011;54385;53.516;49.456;2023-05-07T05:37:01;2.63;;;1.30;;
67554;SDS011;54385;53.516;49.456;2023-05-07T05:39:27;2.20;;;1.23;;
67554;SDS011;54385;53.516;49.456;2023-05-07T05:41:54;4.38;;;1.40;;
67554;SDS011;54385;53.516;49.456;2023-05-07T05:44:21;1.88;;;1.10;;
67554;SDS011;54385;53.516;49.456;2023-05-07T05:46:47;3.00;;;1.00;;
67554;SDS011;54385;53.516;49.456;2023-05-07T05:49:15;1.65;;;0.90;;
67554;SDS011;54385;53.516;49.456;2023-05-07T05:51:42;9.95;;;3.42;;
67554;SDS011;54385;53.516;49.456;2023-05-07T05:54:09;5.13;;;2.35;;
67554;SDS011;54385;53.516;49.456;2023-05-07T05:56:36;5.53;;;1.58;;
67554;SDS011;54385;53.516;49.456;2023-05-07T05:59:06;5.78;;;1.83;;
67554;SDS011;54385;53.516;49.456;2023-05-07T06:01:33;2.83;;;1.17;;
67554;SDS011;54385;53.516;49.456;2023-05-07T06:04:00;1.52;;;1.02;;
67554;SDS011;54385;53.516;49.456;2023-05-07T06:06:26;3.55;;;1.70;;
67554;SDS011;54385;53.516;49.456;2023-05-07T06:08:54;4.10;;;1.17;;
67554;SDS011;54385;53.516;49.456;2023-05-07T06:11:20;1.45;;;1.00;;
67554;SDS011;54385;53.516;49.456;2023-05-07T06:13:47;1.10;;;0.70;;
67554;SDS011;54385;53.516;49.456;2023-05-07T06:16:14;1.65;;;0.80;;
67554;SDS011;54385;53.516;49.456;2023-05-07T06:18:45;1.45;;;1.05;;
67554;SDS011;54385;53.516;49.456;2023-05-07T06:21:13;1.30;;;0.70;;
67554;SDS011;54385;53.516;49.456;2023-05-07T06:23:40;2.45;;;1.42;;
67554;SDS011;54385;53.516;49.456;2023-05-07T06:26:07;1.25;;;0.80;;
67554;SDS011;54385;53.516;49.456;2023-05-07T06:28:34;6.03;;;0.80;;
67554;SDS011;54385;53.516;49.456;2023-05-07T06:31:18;0.77;;;0.63;;
67554;SDS011;54385;53.516;49.456;2023-05-07T06:33:48;0.88;;;0.70;;
67554;SDS011;54385;53.516;49.456;2023-05-07T06:36:15;1.60;;;0.90;;
67554;SDS011;54385;53.516;49.456;2023-05-07T06:38:42;1.67;;;0.90;;
67554;SDS011;54385;53.516;49.456;2023-05-07T06:41:09;0.90;;;0.80;;
67554;SDS011;54385;53.516;49.456;2023-05-07T06:43:35;0.95;;;0.85;;
67554;SDS011;54385;53.516;49.456;2023-05-07T06:46:02;2.72;;;0.98;;
67554;SDS011;54385;53.516;49.456;2023-05-07T06:48:29;5.20;;;2.30;;
67554;SDS011;54385;53.516;49.456;2023-05-07T06:50:56;2.75;;;1.15;;
67554;SDS011;54385;53.516;49.456;2023-05-07T06:53:23;2.90;;;1.25;;
67554;SDS011;54385;53.516;49.456;2023-05-07T06:55:51;1.58;;;0.90;;
67554;SDS011;54385;53.516;49.456;2023-05-07T06:58:18;1.08;;;0.73;;
67554;SDS011;54385;53.516;49.456;2023-05-07T07:00:45;1.20;;;0.88;;
67554;SDS011;54385;53.516;49.456;2023-05-07T07:03:12;2.42;;;0.90;;
67554;SDS011;54385;53.516;49.456;2023-05-07T07:05:40;0.77;;;0.60;;
67554;SDS011;54385;53.516;49.456;2023-05-07T07:08:07;1.02;;;0.68;;
67554;SDS011;54385;53.516;49.456;2023-05-07T07:10:34;0.88;;;0.68;;
67554;SDS011;54385;53.516;49.456;2023-05-07T07:13:01;1.13;;;0.70;;
67554;SDS011;54385;53.516;49.456;2023-05-07T07:15:28;21.83;;;1.02;;
67554;SDS011;54385;53.516;49.456;2023-05-07T07:17:54;4.72;;;0.80;;
67554;SDS011;54385;53.516;49.456;2023-05-07T07:20:21;2.42;;;0.75;;
67554;SDS011;54385;53.516;49.456;2023-05-07T07:22:48;1.63;;;0.80;;
67554;SDS011;54385;53.516;49.456;2023-05-07T07:25:18;2.75;;;1.27;;
67554;SDS011;54385;53.516;49.456;2023-05-07T07:27:44;7.85;;;1.45;;
67554;SDS011;54385;53.516;49.456;2023-05-07T07:30:11;3.58;;;1.00;;
67554;SDS011;54385;53.516;49.456;2023-05-07T07:32:38;3.30;;;0.60;;
67554;SDS011;54385;53.516;49.456;2023-05-07T07:35:05;0.82;;;0.55;;
67554;SDS011;54385;53.516;49.456;2023-05-07T07:37:32;1.50;;;0.93;;
67554;SDS011;54385;53.516;49.456;2023-05-07T07:39:59;4.20;;;1.30;;
67554;SDS011;54385;53.516;49.456;2023-05-07T07:42:26;1.45;;;0.85;;
67554;SDS011;54385;53.516;49.456;2023-05-07T07:44:53;1.75;;;0.60;;
67554;SDS011;54385;53.516;49.456;2023-05-07T07:47:20;0.77;;;0.57;;
67554;SDS011;54385;53.516;49.456;2023-05-07T07:49:46;3.35;;;0.80;;
67554;SDS011;54385;53.516;49.456;2023-05-07T07:52:13;1.67;;;0.80;;
67554;SDS011;54385;53.516;49.456;2023-05-07T07:54:40;1.65;;;0.63;;
67554;SDS011;54385;53.516;49.456;2023-05-07T07:57:07;1.08;;;0.70;;
67554;SDS011;54385;53.516;49.456;2023-05-07T07:59:34;2.40;;;0.80;;
67554;SDS011;54385;53.516;49.456;2023-05-07T08:02:01;2.53;;;0.98;;
67554;SDS011;54385;53.516;49.456;2023-05-07T08:04:27;5.15;;;1.17;;
67554;SDS011;54385;53.516;49.456;2023-05-07T08:06:54;2.13;;;1.05;;
67554;SDS011;54385;53.516;49.456;2023-05-07T08:09:21;1.30;;;0.60;;
67554;SDS011;54385;53.516;49.456;2023-05-07T08:11:48;5.35;;;0.80;;
67554;SDS011;54385;53.516;49.456;2023-05-07T08:14:15;1.38;;;0.70;;
67554;SDS011;54385;53.516;49.456;2023-05-07T08:16:42;2.47;;;0.80;;
67554;SDS011;54385;53.516;49.456;2023-05-07T08:19:09;3.38;;;0.80;;
67554;SDS011;54385;53.516;49.456;2023-05-07T08:21:38;2.47;;;0.70;;
67554;SDS011;54385;53.516;49.456;2023-05-07T08:24:06;0.70;;;0.60;;
67554;SDS011;54385;53.516;49.456;2023-05-07T08:26:32;1.83;;;0.80;;
67554;SDS011;54385;53.516;49.456;2023-05-07T08:28:59;1.02;;;0.63;;
67554;SDS011;54385;53.516;49.456;2023-05-07T08:31:26;4.70;;;0.93;;
67554;SDS011;54385;53.516;49.456;2023-05-07T08:33:53;2.30;;;0.90;;
67554;SDS011;54385;53.516;49.456;2023-05-07T08:36:20;3.60;;;0.90;;
67554;SDS011;54385;53.516;49.456;2023-05-07T08:38:47;2.03;;;0.93;;
67554;SDS011;54385;53.516;49.456;2023-05-07T08:41:13;2.65;;;0.90;;
67554;SDS011;54385;53.516;49.456;2023-05-07T08:43:40;1.20;;;0.77;;
67554;SDS011;54385;53.516;49.456;2023-05-07T08:46:08;1.17;;;0.80;;
67554;SDS011;54385;53.516;49.456;2023-05-07T08:48:37;5.13;;;1.88;;
67554;SDS011;54385;53.516;49.456;2023-05-07T08:51:04;1.45;;;0.80;;
67554;SDS011;54385;53.516;49.456;2023-05-07T08:53:31;0.80;;;0.65;;
67554;SDS011;54385;53.516;49.456;2023-05-07T08:55:59;6.25;;;1.13;;
67554;SDS011;54385;53.516;49.456;2023-05-07T08:58:27;2.33;;;0.85;;
67554;SDS011;54385;53.516;49.456;2023-05-07T09:00:54;2.78;;;0.80;;
67554;SDS011;54385;53.516;49.456;2023-05-07T09:03:20;1.35;;;0.80;;
67554;SDS011;54385;53.516;49.456;2023-05-07T09:05:47;6.43;;;0.82;;
67554;SDS011;54385;53.516;49.456;2023-05-07T09:08:14;1.20;;;0.73;;
67554;SDS011;54385;53.516;49.456;2023-05-07T09:10:42;0.80;;;0.70;;
67554;SDS011;54385;53.516;49.456;2023-05-07T09:13:09;5.78;;;1.52;;
67554;SDS011;54385;53.516;49.456;2023-05-07T09:15:40;1.10;;;0.90;;
67554;SDS011;54385;53.516;49.456;2023-05-07T09:18:07;1.20;;;0.70;;
67554;SDS011;54385;53.516;49.456;2023-05-07T09:20:33;4.28;;;1.20;;
67554;SDS011;54385;53.516;49.456;2023-05-07T09:23:03;3.95;;;0.93;;
67554;SDS011;54385;53.516;49.456;2023-05-07T09:25:31;4.55;;;1.02;;
67554;SDS011;54385;53.516;49.456;2023-05-07T09:27:59;2.78;;;1.20;;
67554;SDS011;54385;53.516;49.456;2023-05-07T09:30:32;2.53;;;1.00;;
67554;SDS011;54385;53.516;49.456;2023-05-07T09:33:00;3.17;;;1.05;;
67554;SDS011;54385;53.516;49.456;2023-05-07T09:35:29;1.52;;;1.08;;
67554;SDS011;54385;53.516;49.456;2023-05-07T09:37:57;1.10;;;1.00;;
67554;SDS011;54385;53.516;49.456;2023-05-07T09:40:25;1.23;;;0.90;;
67554;SDS011;54385;53.516;49.456;2023-05-07T09:42:53;2.30;;;1.20;;
67554;SDS011;54385;53.516;49.456;2023-05-07T09:45:26;2.90;;;1.00;;
67554;SDS011;54385;53.516;49.456;2023-05-07T09:47:55;3.20;;;1.20;;
67554;SDS011;54385;53.516;49.456;2023-05-07T09:50:27;1.52;;;0.95;;
67554;SDS011;54385;53.516;49.456;2023-05-07T09:52:56;6.10;;;1.52;;
67554;SDS011;54385;53.516;49.456;2023-05-07T09:55:23;1.83;;;1.17;;
67554;SDS011;54385;53.516;49.456;2023-05-07T09:57:52;2.97;;;1.08;;
67554;SDS011;54385;53.516;49.456;2023-05-07T10:00:20;3.47;;;1.17;;
67554;SDS011;54385;53.516;49.456;2023-05-07T10:02:51;2.53;;;1.25;;
67554;SDS011;54385;53.516;49.456;2023-05-07T10:05:18;12.95;;;1.90;;
67554;SDS011;54385;53.516;49.456;2023-05-07T10:07:49;1.67;;;0.90;;
67554;SDS011;54385;53.516;49.456;2023-05-07T10:10:17;2.80;;;0.93;;
67554;SDS011;54385;53.516;49.456;2023-05-07T10:12:44;2.60;;;1.13;;
67554;SDS011;54385;53.516;49.456;2023-05-07T10:15:11;4.32;;;1.27;;
67554;SDS011;54385;53.516;49.456;2023-05-07T10:17:39;1.52;;;1.02;;
67554;SDS011;54385;53.516;49.456;2023-05-07T10:20:06;3.75;;;1.10;;
67554;SDS011;54385;53.516;49.456;2023-05-07T10:22:38;2.28;;;1.33;;
67554;SDS011;54385;53.516;49.456;2023-05-07T10:25:20;5.55;;;1.10;;
67554;SDS011;54385;53.516;49.456;2023-05-07T10:27:49;2.53;;;1.20;;
67554;SDS011;54385;53.516;49.456;2023-05-07T10:30:29;1.48;;;1.08;;
67554;SDS011;54385;53.516;49.456;2023-05-07T10:32:57;1.55;;;0.98;;
67554;SDS011;54385;53.516;49.456;2023-05-07T10:35:32;1.48;;;0.90;;
67554;SDS011;54385;53.516;49.456;2023-05-07T10:38:04;3.25;;;1.10;;
67554;SDS011;54385;53.516;49.456;2023-05-07T10:40:31;1.73;;;1.05;;
67554;SDS011;54385;53.516;49.456;2023-05-07T10:42:59;2.35;;;1.00;;
67554;SDS011;54385;53.516;49.456;2023-05-07T10:45:28;2.70;;;1.10;;
67554;SDS011;54385;53.516;49.456;2023-05-07T10:50:32;1.95;;;0.90;;
67554;SDS011;54385;53.516;49.456;2023-05-07T11:00:56;1.80;;;0.85;;
67554;SDS011;54385;53.516;49.456;2023-05-07T11:03:24;1.50;;;0.73;;
67554;SDS011;54385;53.516;49.456;2023-05-07T11:06:11;2.92;;;1.00;;
67554;SDS011;54385;53.516;49.456;2023-05-07T11:14:59;6.10;;;1.05;;
67554;SDS011;54385;53.516;49.456;2023-05-07T11:17:19;3.45;;;0.77;;
67554;SDS011;54385;53.516;49.456;2023-05-07T11:19:53;1.23;;;0.80;;
67554;SDS011;54385;53.516;49.456;2023-05-07T11:25:01;1.77;;;1.00;;
67554;SDS011;54385;53.516;49.456;2023-05-07T11:27:29;5.65;;;1.00;;
67554;SDS011;54385;53.516;49.456;2023-05-07T11:29:56;1.63;;;0.90;;
67554;SDS011;54385;53.516;49.456;2023-05-07T11:32:29;1.67;;;0.85;;
67554;SDS011;54385;53.516;49.456;2023-05-07T11:34:57;1.80;;;0.70;;
67554;SDS011;54385;53.516;49.456;2023-05-07T11:37:26;6.47;;;0.90;;
67554;SDS011;54385;53.516;49.456;2023-05-07T11:40:05;2.42;;;0.88;;
67554;SDS011;54385;53.516;49.456;2023-05-07T11:42:34;1.00;;;0.70;;
67554;SDS011;54385;53.516;49.456;2023-05-07T11:45:03;1.52;;;0.93;;
67554;SDS011;54385;53.516;49.456;2023-05-07T11:47:32;1.33;;;0.85;;
67554;SDS011;54385;53.516;49.456;2023-05-07T11:50:06;2.20;;;0.90;;
67554;SDS011;54385;53.516;49.456;2023-05-07T11:52:34;1.45;;;0.90;;
67554;SDS011;54385;53.516;49.456;2023-05-07T11:55:01;1.92;;;1.00;;
67554;SDS011;54385;53.516;49.456;2023-05-07T11:57:32;3.03;;;1.05;;
67554;SDS011;54385;53.516;49.456;2023-05-07T12:00:01;2.80;;;1.00;;
67554;SDS011;54385;53.516;49.456;2023-05-07T12:02:29;4.95;;;0.93;;
67554;SDS011;54385;53.516;49.456;2023-05-07T12:04:57;1.45;;;0.88;;
67554;SDS011;54385;53.516;49.456;2023-05-07T12:07:27;4.60;;;0.88;;
67554;SDS011;54385;53.516;49.456;2023-05-07T12:09:54;5.38;;;1.23;;
67554;SDS011;54385;53.516;49.456;2023-05-07T12:12:20;6.63;;;1.48;;
67554;SDS011;54385;53.516;49.456;2023-05-07T12:14:47;2.67;;;0.90;;
67554;SDS011;54385;53.516;49.456;2023-05-07T12:17:14;1.85;;;0.88;;
67554;SDS011;54385;53.516;49.456;2023-05-07T12:19:43;1.92;;;0.90;;
67554;SDS011;54385;53.516;49.456;2023-05-07T12:22:10;2.55;;;1.00;;
67554;SDS011;54385;53.516;49.456;2023-05-07T12:24:57;3.53;;;1.20;;
67554;SDS011;54385;53.516;49.456;2023-05-07T12:27:25;1.20;;;0.80;;
67554;SDS011;54385;53.516;49.456;2023-05-07T12:29:52;2.00;;;1.25;;
67554;SDS011;54385;53.516;49.456;2023-05-07T12:32:20;3.75;;;0.80;;
67554;SDS011;54385;53.516;49.456;2023-05-07T12:34:51;2.85;;;1.35;;
67554;SDS011;54385;53.516;49.456;2023-05-07T12:37:22;4.55;;;1.00;;
67554;SDS011;54385;53.516;49.456;2023-05-07T12:40:09;1.65;;;0.70;;
67554;SDS011;54385;53.516;49.456;2023-05-07T12:42:38;1.60;;;1.00;;
67554;SDS011;54385;53.516;49.456;2023-05-07T12:45:10;3.83;;;1.00;;
67554;SDS011;54385;53.516;49.456;2023-05-07T12:47:37;2.63;;;1.00;;
67554;SDS011;54385;53.516;49.456;2023-05-07T12:50:05;1.52;;;1.05;;
67554;SDS011;54385;53.516;49.456;2023-05-07T12:52:33;2.38;;;0.90;;
67554;SDS011;54385;53.516;49.456;2023-05-07T12:55:06;2.03;;;0.98;;
67554;SDS011;54385;53.516;49.456;2023-05-07T12:57:47;1.50;;;1.00;;
67554;SDS011;54385;53.516;49.456;2023-05-07T13:00:16;6.22;;;1.08;;
67554;SDS011;54385;53.516;49.456;2023-05-07T13:02:44;1.33;;;0.70;;
67554;SDS011;54385;53.516;49.456;2023-05-07T13:05:11;1.85;;;1.10;;
67554;SDS011;54385;53.516;49.456;2023-05-07T13:07:38;2.28;;;0.90;;
67554;SDS011;54385;53.516;49.456;2023-05-07T13:10:06;1.88;;;0.90;;
67554;SDS011;54385;53.516;49.456;2023-05-07T13:12:33;2.58;;;0.82;;
67554;SDS011;54385;53.516;49.456;2023-05-07T13:15:00;1.17;;;0.70;;
67554;SDS011;54385;53.516;49.456;2023-05-07T13:17:27;1.30;;;0.75;;
67554;SDS011;54385;53.516;49.456;2023-05-07T13:19:54;3.55;;;1.00;;
67554;SDS011;54385;53.516;49.456;2023-05-07T13:22:21;2.15;;;1.08;;
67554;SDS011;54385;53.516;49.456;2023-05-07T13:24:47;3.05;;;0.93;;
67554;SDS011;54385;53.516;49.456;2023-05-07T13:27:14;2.15;;;0.90;;
67554;SDS011;54385;53.516;49.456;2023-05-07T13:29:41;2.17;;;0.98;;
67554;SDS011;54385;53.516;49.456;2023-05-07T13:32:08;1.25;;;0.82;;
67554;SDS011;54385;53.516;49.456;2023-05-07T13:34:35;3.40;;;1.10;;
67554;SDS011;54385;53.516;49.456;2023-05-07T13:37:02;1.33;;;0.90;;
67554;SDS011;54385;53.516;49.456;2023-05-07T13:39:29;1.35;;;0.93;;
67554;SDS011;54385;53.516;49.456;2023-05-07T13:41:56;3.70;;;1.10;;
67554;SDS011;54385;53.516;49.456;2023-05-07T13:44:23;2.85;;;1.00;;
67554;SDS011;54385;53.516;49.456;2023-05-07T13:46:49;4.30;;;1.38;;
67554;SDS011;54385;53.516;49.456;2023-05-07T13:49:17;3.03;;;1.30;;
67554;SDS011;54385;53.516;49.456;2023-05-07T13:51:44;3.30;;;1.08;;
67554;SDS011;54385;53.516;49.456;2023-05-07T13:54:11;3.83;;;1.25;;
67554;SDS011;54385;53.516;49.456;2023-05-07T13:56:39;1.05;;;0.90;;
67554;SDS011;54385;53.516;49.456;2023-05-07T13:59:06;2.88;;;1.30;;
67554;SDS011;54385;53.516;49.456;2023-05-07T14:01:35;3.60;;;1.00;;
67554;SDS011;54385;53.516;49.456;2023-05-07T14:04:02;4.20;;;1.25;;
67554;SDS011;54385;53.516;49.456;2023-05-07T14:06:28;1.55;;;0.93;;
67554;SDS011;54385;53.516;49.456;2023-05-07T14:08:56;1.23;;;0.98;;
67554;SDS011;54385;53.516;49.456;2023-05-07T14:11:23;2.80;;;1.25;;
67554;SDS011;54385;53.516;49.456;2023-05-07T14:13:50;3.28;;;1.20;;
67554;SDS011;54385;53.516;49.456;2023-05-07T14:16:17;5.13;;;1.30;;
67554;SDS011;54385;53.516;49.456;2023-05-07T14:18:44;4.50;;;1.20;;
67554;SDS011;54385;53.516;49.456;2023-05-07T14:21:10;1.23;;;0.95;;
67554;SDS011;54385;53.516;49.456;2023-05-07T14:23:37;1.65;;;1.33;;
67554;SDS011;54385;53.516;49.456;2023-05-07T14:26:04;3.20;;;1.60;;
67554;SDS011;54385;53.516;49.456;2023-05-07T14:28:31;2.40;;;1.30;;
67554;SDS011;54385;53.516;49.456;2023-05-07T14:30:57;1.98;;;1.33;;
67554;SDS011;54385;53.516;49.456;2023-05-07T14:33:24;1.88;;;1.30;;
67554;SDS011;54385;53.516;49.456;2023-05-07T14:35:51;2.47;;;1.70;;
67554;SDS011;54385;53.516;49.456;2023-05-07T14:38:17;1.50;;;1.02;;
67554;SDS011;54385;53.516;49.456;2023-05-07T14:40:44;5.22;;;1.15;;
67554;SDS011;54385;53.516;49.456;2023-05-07T14:43:11;6.55;;;1.40;;
67554;SDS011;54385;53.516;49.456;2023-05-07T14:45:38;2.95;;;1.20;;
67554;SDS011;54385;53.516;49.456;2023-05-07T14:48:04;2.78;;;1.20;;
67554;SDS011;54385;53.516;49.456;2023-05-07T14:50:35;3.35;;;1.40;;
67554;SDS011;54385;53.516;49.456;2023-05-07T14:53:01;2.35;;;1.08;;
67554;SDS011;54385;53.516;49.456;2023-05-07T14:55:28;4.07;;;1.30;;
67554;SDS011;54385;53.516;49.456;2023-05-07T14:57:55;2.33;;;1.00;;
67554;SDS011;54385;53.516;49.456;2023-05-07T15:00:22;2.33;;;0.95;;
67554;SDS011;54385;53.516;49.456;2023-05-07T15:02:49;2.35;;;0.90;;
67554;SDS011;54385;53.516;49.456;2023-05-07T15:05:15;3.05;;;1.35;;
67554;SDS011;54385;53.516;49.456;2023-05-07T15:07:44;3.53;;;1.02;;
67554;SDS011;54385;53.516;49.456;2023-05-07T15:10:11;4.07;;;1.10;;
67554;SDS011;54385;53.516;49.456;2023-05-07T15:12:37;2.20;;;1.30;;